Terminal Aerodrome Forecast
Issued by NWS Duluth, MN

Home | Current Version | Previous Version | Graphics & Text | Print | Product List | Glossary On
Versions: 1 2 3 4 5 6 7 8 9 10 11 12 13 14 15
000
FTUS43 KDLH 252336
TAFINL
TAF
KINL 252336Z 2600/2624 22010G17KT P6SM BKN250
     FM260200 22005KT P6SM BKN250
     FM260500 24005KT P6SM BKN150 WS015/24040KT
     FM260800 29007KT P6SM SCT030 BKN070
     FM260900 32010KT 6SM -RA BKN030 OVC050
     FM261200 34013G18KT P6SM BKN025 OVC050
     FM261700 34011G17KT P6SM BKN035=

USA.gov is the U.S. government's official web portal to all federal, state and local government web resources and services.